Ugnu Kuparuk, AK

9:37 AM AKST on February 14, 2016 (GMT -0900)
Kuparuk | | Change Station
CLOSE
Current Station
Airport
Location: Kuparuk,
Elevation: 66 ft
Nearby Weather Stations
Active Advisory: Blizzard Warning

Elev 66 ft 70.33 °N, 149.60 °W | Updated 25 minutes ago

Blowing Snow
Blowing Snow
3 °F
Feels Like -23 °F
N
34
Wind Variable Wind from East
Gusts 43 mph

Today
High -- | Low -- °F
--% Chance of Precip.
Yesterday
High -- | Low -- °F
Precip. -- in
Pressure 29.66 in
Visibility 0.2 miles
Clouds Mostly Cloudy 600 ft
Overcast 1400 ft
Windchill -23 °F
Dew Point 1 °F
Humidity 92%
Rainfall 0.00 in
Snow Depth Not available.
9:40 AM 4:45 PM
Waxing Crescent, 44% visible
SPECI PAKU 141812Z 09030G37KT 1/4SM R06/2200FT BLSN BKN006 OVC014 M16/M17 A2966
Pressure 29.66 in
Visibility 0.2 miles
Clouds Mostly Cloudy 600 ft
Overcast 1400 ft
Windchill -23 °F
Dew Point 1 °F
Humidity 92%
Rainfall 0.00 in
Snow Depth Not available.
9:40 AM 4:45 PM
Waxing Crescent, 44% visible
SPECI PAKU 141812Z 09030G37KT 1/4SM R06/2200FT BLSN BKN006 OVC014 M16/M17 A2966

10-Day Weather Forecast

Almanac

Astronomy

Feb. 14, 2016 Rise Set
Actual Time
Civil Twilight
Nautical Twilight
Astronomical Twilight
Moon
Length of Visible Light
Length of Day
Tomorrow will be .
, % of the Moon is Illuminated

Today's Extremes

State Highs State Lows

Community

WunderPhotos

Upload Photos

1,892,868 photos uploaded!

WunderBlog® & News

Nearby

Air Quality

  Air Quality AQ Index Pollutant
Not available.

Snow Depth

Station Depth Elevation

Earthquake Activity

City Distance Mag. Time & Date
Minimum magnitude displayed is 2.5.

Coastal Water Temperatures

Place Temperature

Stations

Nearby Weather Stations

Station Location Temp. Windchill Dew Point Humidity Wind Precip. Elev Updated Type
                   

Watches & Warnings

Blizzard Warning
Issued: 3:59 AM AKST Feb. 14, 2016 – National Weather Service

... Blizzard Warning now in effect until 6 PM akst this
evening...

* blowing snow... reducing visibility to one quarter mile or less
at times.

* Winds... east winds 25 to 35 mph with gusts to 45 mph.

* Timing... blizzard conditions continuing today. Conditions
improving tonight as winds decrease.

* Impacts... visibility will be very poor and snow will
accumulate into drifts. Whiteout conditions will occur. Travel
and outdoor activities will be difficult.

Precautionary/preparedness actions...

A Blizzard Warning means severe winter weather conditions in
blowing snow with strong winds and very poor visibilities are
occurring or expected.